createdAt,value
2023-04-16T00:00:34.227Z,6.50
2023-04-16T00:03:01.644Z,6.50
2023-04-16T00:05:28.864Z,6.50
2023-04-16T00:07:56.120Z,6.50
2023-04-16T00:10:23.389Z,6.50
2023-04-16T00:12:50.549Z,6.50
2023-04-16T00:15:17.757Z,6.40
2023-04-16T00:17:45.830Z,6.40
2023-04-16T00:20:13.037Z,6.40
2023-04-16T00:22:40.277Z,6.40
2023-04-16T00:25:07.781Z,6.40
2023-04-16T00:27:34.952Z,6.40
2023-04-16T00:30:02.234Z,6.30
2023-04-16T00:32:30.366Z,6.30
2023-04-16T00:34:57.556Z,6.30
2023-04-16T00:37:24.760Z,6.30
2023-04-16T00:39:51.977Z,6.30
2023-04-16T00:42:19.155Z,6.30
2023-04-16T00:44:46.469Z,6.20
2023-04-16T00:47:13.697Z,6.20
2023-04-16T00:49:41.247Z,6.20
2023-04-16T00:52:08.610Z,6.20
2023-04-16T00:54:36.489Z,6.20
2023-04-16T00:57:03.766Z,6.20
2023-04-16T00:59:31.200Z,6.20
2023-04-16T01:01:58.568Z,6.20
2023-04-16T01:04:26.572Z,6.10
2023-04-16T01:06:54.338Z,6.10
2023-04-16T01:09:21.532Z,6.00
2023-04-16T01:11:48.657Z,5.90
2023-04-16T01:14:15.934Z,5.90
2023-04-16T01:16:43.207Z,5.80
2023-04-16T01:19:10.525Z,5.80
2023-04-16T01:21:37.910Z,5.70
2023-04-16T01:24:05.891Z,5.70
2023-04-16T01:26:33.299Z,5.60
2023-04-16T01:29:01.019Z,5.60
2023-04-16T01:31:28.246Z,5.50
2023-04-16T01:33:55.399Z,5.50
2023-04-16T01:36:22.623Z,5.40
2023-04-16T01:38:50.166Z,5.40
2023-04-16T01:41:17.326Z,5.40
2023-04-16T01:43:44.628Z,5.30
2023-04-16T01:46:33.638Z,5.30
2023-04-16T01:49:02.010Z,5.20
2023-04-16T01:51:29.157Z,5.20
2023-04-16T01:53:58.390Z,5.20
2023-04-16T01:56:26.053Z,5.20
2023-04-16T01:58:53.687Z,5.10
2023-04-16T02:01:21.000Z,5.10
2023-04-16T02:03:48.922Z,5.10
2023-04-16T02:06:16.591Z,5.10
2023-04-16T02:08:44.197Z,5.10
2023-04-16T02:11:11.639Z,5.10
2023-04-16T02:13:38.885Z,5.10
2023-04-16T02:16:06.479Z,5.10
2023-04-16T02:18:33.719Z,5.10
2023-04-16T02:21:00.875Z,5.10
2023-04-16T02:23:28.793Z,5.10
2023-04-16T02:25:56.155Z,5.00
2023-04-16T02:28:23.282Z,5.00
2023-04-16T02:30:50.585Z,5.00
2023-04-16T02:33:17.783Z,5.00
2023-04-16T02:35:44.984Z,5.00
2023-04-16T02:38:12.149Z,5.00
2023-04-16T02:40:39.784Z,5.00
2023-04-16T02:43:06.970Z,5.00
2023-04-16T02:45:34.854Z,5.10
2023-04-16T02:48:02.180Z,5.10
2023-04-16T02:50:29.567Z,5.00
2023-04-16T02:52:56.728Z,5.00
2023-04-16T02:55:23.878Z,4.90
2023-04-16T02:57:52.248Z,4.90
2023-04-16T03:00:19.740Z,4.80
2023-04-16T03:02:46.974Z,4.70
2023-04-16T03:05:14.217Z,4.60
2023-04-16T03:07:41.442Z,4.50
2023-04-16T03:10:09.544Z,4.50
2023-04-16T03:12:36.917Z,4.40
2023-04-16T03:15:04.418Z,4.40
2023-04-16T03:17:31.625Z,4.40
2023-04-16T03:19:58.865Z,4.30
2023-04-16T03:22:26.035Z,4.30
2023-04-16T03:24:53.321Z,4.20
2023-04-16T03:27:20.521Z,4.20
2023-04-16T03:29:47.722Z,4.20
2023-04-16T03:32:14.961Z,4.20
2023-04-16T03:34:42.142Z,4.20
2023-04-16T03:37:12.153Z,4.20
2023-04-16T03:39:39.474Z,4.10
2023-04-16T03:42:06.821Z,4.10
2023-04-16T03:44:34.156Z,4.10
2023-04-16T03:47:01.549Z,4.10
2023-04-16T03:49:28.794Z,4.10
2023-04-16T03:51:56.120Z,4.10
2023-04-16T03:54:23.417Z,4.10
2023-04-16T03:56:50.620Z,4.10
2023-04-16T03:59:18.095Z,4.10
2023-04-16T04:01:45.496Z,4.10
2023-04-16T04:04:12.884Z,4.20
2023-04-16T04:06:40.073Z,4.10
2023-04-16T04:09:07.675Z,4.10
2023-04-16T04:11:35.228Z,4.00
2023-04-16T04:14:02.523Z,4.00
2023-04-16T04:16:29.807Z,4.00
2023-04-16T04:18:57.060Z,3.90
2023-04-16T04:21:24.234Z,3.90
2023-04-16T04:23:51.422Z,3.90
2023-04-16T04:26:18.687Z,3.90
2023-04-16T04:28:47.322Z,3.90
2023-04-16T04:31:14.714Z,4.00
2023-04-16T04:33:41.880Z,4.00
2023-04-16T04:36:09.014Z,4.00
2023-04-16T04:38:36.620Z,4.00
2023-04-16T04:41:03.893Z,4.00
2023-04-16T04:43:31.276Z,4.10
2023-04-16T04:45:58.495Z,4.10
2023-04-16T04:48:26.873Z,4.10
2023-04-16T04:50:54.186Z,4.10
2023-04-16T04:53:21.569Z,4.10
2023-04-16T04:55:52.299Z,4.10
2023-04-16T04:58:21.378Z,4.10
2023-04-16T05:00:48.595Z,4.10
2023-04-16T05:03:21.685Z,4.10
2023-04-16T05:05:48.974Z,4.10
2023-04-16T05:08:16.344Z,4.10
2023-04-16T05:10:43.560Z,4.10
2023-04-16T05:13:10.669Z,4.10
2023-04-16T05:15:38.111Z,4.20
2023-04-16T05:18:05.357Z,4.10
2023-04-16T05:20:32.764Z,4.10
2023-04-16T05:22:59.883Z,4.10
2023-04-16T05:25:27.199Z,4.10
2023-04-16T05:27:54.398Z,4.10
2023-04-16T05:30:22.017Z,4.10
2023-04-16T05:32:49.331Z,4.10
2023-04-16T05:35:17.604Z,4.10
2023-04-16T05:37:44.974Z,4.10
2023-04-16T05:40:14.490Z,4.20
2023-04-16T05:42:41.805Z,4.20
2023-04-16T05:45:09.484Z,4.20
2023-04-16T05:47:36.765Z,4.20
2023-04-16T05:50:03.991Z,4.30
2023-04-16T05:52:31.178Z,4.40
2023-04-16T05:55:02.051Z,4.40
2023-04-16T05:57:30.345Z,4.40
2023-04-16T05:59:57.488Z,4.50
2023-04-16T06:02:24.899Z,4.50
2023-04-16T06:04:52.239Z,4.60
2023-04-16T06:07:19.580Z,4.60
2023-04-16T06:09:46.826Z,4.70
2023-04-16T06:12:14.013Z,4.70
2023-04-16T06:14:41.168Z,4.60
2023-04-16T06:17:08.491Z,4.60
2023-04-16T06:19:35.725Z,4.60
2023-04-16T06:22:02.847Z,4.60
2023-04-16T06:24:30.093Z,4.60
2023-04-16T06:26:57.613Z,4.60
2023-04-16T06:29:33.712Z,4.60
2023-04-16T06:32:08.416Z,4.70
2023-04-16T06:34:35.872Z,4.70
2023-04-16T06:37:03.039Z,4.70
2023-04-16T06:39:30.557Z,4.70
2023-04-16T06:41:57.814Z,4.70
2023-04-16T06:44:24.973Z,4.70
2023-04-16T06:46:52.245Z,4.70
2023-04-16T06:49:19.406Z,4.70
2023-04-16T06:51:46.637Z,4.70
2023-04-16T06:54:13.924Z,4.70
2023-04-16T06:56:41.073Z,4.80
2023-04-16T06:59:08.579Z,4.80
2023-04-16T07:01:36.757Z,4.90
2023-04-16T07:04:04.571Z,5.00
2023-04-16T07:06:32.163Z,5.00
2023-04-16T07:08:59.436Z,5.10
2023-04-16T07:11:28.147Z,5.20
2023-04-16T07:13:55.238Z,5.20
2023-04-16T07:16:22.428Z,5.30
2023-04-16T07:18:49.785Z,5.30
2023-04-16T07:21:17.028Z,5.30
2023-04-16T07:23:44.223Z,5.40
2023-04-16T07:26:12.176Z,5.40
2023-04-16T07:28:39.460Z,5.50
2023-04-16T07:31:06.662Z,5.50
2023-04-16T07:33:34.015Z,5.50
2023-04-16T07:36:01.316Z,5.50
2023-04-16T07:38:28.467Z,5.60
2023-04-16T07:40:57.022Z,5.60
2023-04-16T07:43:24.242Z,5.70
2023-04-16T07:45:51.444Z,5.70
2023-04-16T07:48:18.699Z,5.80
2023-04-16T07:50:46.323Z,5.80
2023-04-16T07:53:13.570Z,5.80
2023-04-16T07:55:41.353Z,5.80
2023-04-16T07:58:09.833Z,5.70
2023-04-16T08:00:37.583Z,5.70
2023-04-16T08:03:05.201Z,5.80
2023-04-16T08:05:32.544Z,5.80
2023-04-16T08:07:59.733Z,5.90
2023-04-16T08:10:27.815Z,6.00
2023-04-16T08:12:55.025Z,6.10
2023-04-16T08:15:22.273Z,6.10
2023-04-16T08:17:49.440Z,6.10
2023-04-16T08:20:19.113Z,6.10
2023-04-16T08:22:46.797Z,6.10
2023-04-16T08:25:14.475Z,6.10
2023-04-16T08:27:41.672Z,6.10
2023-04-16T08:30:09.128Z,6.10
2023-04-16T08:32:36.313Z,6.20
2023-04-16T08:35:03.536Z,6.20
2023-04-16T08:37:30.703Z,6.20
2023-04-16T08:39:57.880Z,6.20
2023-04-16T08:42:32.420Z,6.20
2023-04-16T08:45:18.279Z,6.20
2023-04-16T08:47:51.397Z,6.30
2023-04-16T08:50:27.434Z,6.20
2023-04-16T08:53:00.882Z,6.20
2023-04-16T08:55:56.246Z,6.20
2023-04-16T08:58:23.809Z,6.20
2023-04-16T09:00:51.305Z,6.20
2023-04-16T09:03:21.721Z,6.20
2023-04-16T09:05:49.900Z,6.20
2023-04-16T09:08:18.429Z,6.20
2023-04-16T09:10:46.020Z,6.20
2023-04-16T09:13:14.954Z,6.10
2023-04-16T09:15:42.927Z,6.20
2023-04-16T09:18:12.284Z,6.20
2023-04-16T09:20:39.996Z,6.20
2023-04-16T09:23:07.162Z,6.20
2023-04-16T09:25:35.462Z,6.30
2023-04-16T09:28:02.777Z,6.20
2023-04-16T09:30:29.980Z,6.20
2023-04-16T09:33:13.933Z,6.20
2023-04-16T09:35:52.429Z,6.20
2023-04-16T09:38:20.694Z,6.20
2023-04-16T09:40:48.098Z,6.20
2023-04-16T09:43:17.165Z,6.30
2023-04-16T09:45:53.970Z,6.30
2023-04-16T09:48:34.326Z,6.40
2023-04-16T09:51:01.843Z,6.40
2023-04-16T09:53:31.167Z,6.40
2023-04-16T09:55:59.475Z,6.50
2023-04-16T09:58:26.948Z,6.50
2023-04-16T10:01:13.353Z,6.60
2023-04-16T10:03:41.514Z,6.70
2023-04-16T10:06:14.282Z,6.80
2023-04-16T10:08:49.945Z,6.80
2023-04-16T10:11:18.916Z,6.80
2023-04-16T10:13:46.558Z,6.80
2023-04-16T10:16:13.919Z,6.80
2023-04-16T10:18:43.549Z,6.70
2023-04-16T10:21:15.551Z,6.60
2023-04-16T10:23:43.838Z,6.60
2023-04-16T10:26:11.374Z,6.60
2023-04-16T10:28:39.223Z,6.70
2023-04-16T10:31:09.010Z,6.80
2023-04-16T10:33:39.700Z,6.90
2023-04-16T10:36:26.747Z,7.00
2023-04-16T10:38:58.536Z,7.00
2023-04-16T10:41:29.108Z,7.10
2023-04-16T10:44:06.726Z,7.00
2023-04-16T10:46:38.021Z,7.00
2023-04-16T10:49:19.991Z,7.10
2023-04-16T10:52:02.593Z,7.10
2023-04-16T10:54:31.337Z,7.20
2023-04-16T10:57:01.713Z,7.20
2023-04-16T10:59:35.176Z,7.20
2023-04-16T11:02:13.907Z,7.20
2023-04-16T11:04:45.334Z,7.20
2023-04-16T11:07:18.923Z,7.20
2023-04-16T11:09:51.241Z,7.30
2023-04-16T11:12:45.846Z,7.30
2023-04-16T11:15:17.262Z,7.30
2023-04-16T11:17:45.284Z,7.40
2023-04-16T11:20:26.999Z,7.50
2023-04-16T11:22:56.216Z,7.40
2023-04-16T11:25:31.750Z,7.40
2023-04-16T11:27:59.438Z,7.30
2023-04-16T11:30:37.151Z,7.30
2023-04-16T11:33:11.737Z,7.30
2023-04-16T11:35:40.163Z,7.30
2023-04-16T11:38:07.878Z,7.30
2023-04-16T11:40:36.565Z,7.30
2023-04-16T11:43:23.050Z,7.20
2023-04-16T11:46:20.129Z,7.20
2023-04-16T11:48:55.710Z,7.20
2023-04-16T11:51:23.958Z,7.20
2023-04-16T11:53:55.587Z,7.20
2023-04-16T11:56:30.332Z,7.20
2023-04-16T11:59:15.000Z,7.20
2023-04-16T12:01:46.712Z,7.20
2023-04-16T12:04:16.210Z,7.30
2023-04-16T12:07:12.079Z,7.40
2023-04-16T12:09:41.782Z,7.40
2023-04-16T12:12:32.061Z,7.50
2023-04-16T12:15:00.385Z,7.50
2023-04-16T12:17:27.753Z,7.60
2023-04-16T12:20:21.569Z,7.60
2023-04-16T12:22:49.955Z,7.60
2023-04-16T12:25:18.498Z,7.60
2023-04-16T12:27:47.137Z,7.50
2023-04-16T12:30:16.309Z,7.50
2023-04-16T12:32:45.371Z,7.50
2023-04-16T12:35:13.083Z,7.40
2023-04-16T12:37:41.094Z,7.40
2023-04-16T12:40:08.868Z,7.40
2023-04-16T12:42:36.285Z,7.30
2023-04-16T12:45:05.260Z,7.30
2023-04-16T12:47:33.078Z,7.30
2023-04-16T12:50:00.328Z,7.20
2023-04-16T12:52:27.983Z,7.20
2023-04-16T12:54:55.179Z,7.20
2023-04-16T12:57:24.063Z,7.10
2023-04-16T12:59:51.407Z,7.10
2023-04-16T13:02:18.716Z,7.20
2023-04-16T13:04:46.292Z,7.20
2023-04-16T13:07:13.843Z,7.20
2023-04-16T13:09:41.150Z,7.30
2023-04-16T13:12:08.390Z,7.40
2023-04-16T13:14:36.224Z,7.40
2023-04-16T13:17:04.280Z,7.50
2023-04-16T13:19:31.944Z,7.50
2023-04-16T13:21:59.673Z,7.50
2023-04-16T13:24:26.888Z,7.50
2023-04-16T13:26:54.376Z,7.60
2023-04-16T13:29:21.604Z,7.70
2023-04-16T13:31:49.200Z,7.70
2023-04-16T13:34:16.488Z,7.70
2023-04-16T13:36:43.693Z,7.70
2023-04-16T13:39:11.783Z,7.70
2023-04-16T13:41:39.677Z,7.60
2023-04-16T13:44:07.110Z,7.60
2023-04-16T13:46:34.753Z,7.60
2023-04-16T13:49:02.124Z,7.50
2023-04-16T13:51:29.409Z,7.50
2023-04-16T13:53:56.684Z,7.50
2023-04-16T13:56:23.948Z,7.40
2023-04-16T13:58:52.376Z,7.40
2023-04-16T14:01:19.939Z,7.40
2023-04-16T14:03:47.249Z,7.40
2023-04-16T14:06:15.208Z,7.40
2023-04-16T14:08:46.256Z,7.30
2023-04-16T14:11:13.443Z,7.30
2023-04-16T14:13:40.873Z,7.30
2023-04-16T14:16:08.068Z,7.30
2023-04-16T14:18:36.069Z,7.30
2023-04-16T14:21:03.429Z,7.30
2023-04-16T14:23:30.750Z,7.30
2023-04-16T14:25:57.996Z,7.30
2023-04-16T14:28:25.188Z,7.20
2023-04-16T14:30:52.412Z,7.20
2023-04-16T14:33:19.583Z,7.20
2023-04-16T14:35:46.753Z,7.20
2023-04-16T14:38:14.012Z,7.20
2023-04-16T14:40:41.254Z,7.20
2023-04-16T14:43:08.494Z,7.20
2023-04-16T14:45:38.633Z,7.20
2023-04-16T14:48:07.117Z,7.10
2023-04-16T14:50:38.152Z,7.10
2023-04-16T14:53:05.957Z,7.10
2023-04-16T14:55:33.218Z,7.10
2023-04-16T14:58:00.578Z,7.10
2023-04-16T15:00:28.325Z,7.10
2023-04-16T15:02:56.034Z,7.10
2023-04-16T15:05:23.427Z,7.10
2023-04-16T15:07:50.939Z,7.10
2023-04-16T15:10:18.343Z,7.10
2023-04-16T15:12:45.779Z,7.10
2023-04-16T15:15:13.037Z,7.10
2023-04-16T15:17:40.264Z,7.10
2023-04-16T15:20:08.794Z,7.10
2023-04-16T15:22:36.145Z,7.10
2023-04-16T15:25:03.458Z,7.10
2023-04-16T15:27:30.757Z,7.10
2023-04-16T15:29:58.043Z,7.10
2023-04-16T15:32:25.505Z,7.10
2023-04-16T15:34:52.758Z,7.10
2023-04-16T15:37:19.936Z,7.10
2023-04-16T15:39:47.282Z,7.10
2023-04-16T15:42:14.458Z,7.10
2023-04-16T15:44:41.683Z,7.10
2023-04-16T15:47:09.242Z,7.10
2023-04-16T15:49:36.708Z,7.10
2023-04-16T15:52:04.224Z,7.10
2023-04-16T15:54:32.250Z,7.10
2023-04-16T15:56:59.539Z,7.10
2023-04-16T15:59:27.202Z,7.10
2023-04-16T16:01:54.720Z,7.10
2023-04-16T16:04:23.285Z,7.10
2023-04-16T16:06:51.237Z,7.10
2023-04-16T16:09:25.760Z,7.10
2023-04-16T16:11:58.097Z,7.10
2023-04-16T16:14:27.013Z,7.10
2023-04-16T16:16:54.378Z,7.10
2023-04-16T16:19:21.656Z,7.10
2023-04-16T16:21:48.969Z,7.10
2023-04-16T16:24:16.218Z,7.10
2023-04-16T16:26:43.515Z,7.10
2023-04-16T16:29:11.151Z,7.10
2023-04-16T16:31:38.852Z,7.10
2023-04-16T16:34:06.243Z,7.10
2023-04-16T16:36:37.094Z,7.10
2023-04-16T16:39:04.944Z,7.10
2023-04-16T16:41:32.605Z,7.10
2023-04-16T16:43:59.953Z,7.00
2023-04-16T16:46:27.174Z,7.10
2023-04-16T16:48:54.471Z,7.10
2023-04-16T16:51:21.703Z,7.10
2023-04-16T16:53:48.886Z,7.10
2023-04-16T16:56:16.231Z,7.10
2023-04-16T16:58:43.456Z,7.10
2023-04-16T17:01:10.755Z,7.10
2023-04-16T17:03:38.138Z,7.10
2023-04-16T17:06:05.588Z,7.10
2023-04-16T17:08:33.091Z,7.10
2023-04-16T17:11:03.950Z,7.10
2023-04-16T17:13:32.869Z,7.10
2023-04-16T17:16:00.179Z,7.10
2023-04-16T17:18:28.087Z,7.10
2023-04-16T17:20:55.179Z,7.10
2023-04-16T17:23:22.681Z,7.10
2023-04-16T17:25:50.155Z,7.10
2023-04-16T17:28:17.557Z,7.10
2023-04-16T17:30:45.171Z,7.10
2023-04-16T17:33:12.508Z,7.10
2023-04-16T17:35:41.127Z,7.10
2023-04-16T17:38:08.443Z,7.10
2023-04-16T17:40:35.627Z,7.10
2023-04-16T17:43:02.909Z,7.10
2023-04-16T17:45:30.116Z,7.10
2023-04-16T17:47:57.292Z,7.10
2023-04-16T17:50:24.694Z,7.10
2023-04-16T17:52:51.956Z,7.10
2023-04-16T17:55:19.106Z,7.10
2023-04-16T17:57:46.271Z,7.10
2023-04-16T18:00:14.695Z,7.10
2023-04-16T18:02:42.317Z,7.10
2023-04-16T18:05:09.982Z,7.10
2023-04-16T18:07:37.861Z,7.10
2023-04-16T18:10:06.173Z,7.10
2023-04-16T18:12:33.807Z,7.10
2023-04-16T18:15:00.974Z,7.10
2023-04-16T18:17:28.253Z,7.10
2023-04-16T18:19:56.803Z,7.10
2023-04-16T18:22:25.712Z,7.10
2023-04-16T18:24:54.150Z,7.10
2023-04-16T18:27:21.764Z,7.20
2023-04-16T18:29:49.510Z,7.10
2023-04-16T18:32:16.926Z,7.10
2023-04-16T18:34:44.438Z,7.10
2023-04-16T18:37:11.628Z,7.20
2023-04-16T18:39:38.719Z,7.20
2023-04-16T18:42:06.405Z,7.20
2023-04-16T18:44:33.564Z,7.20
2023-04-16T18:47:00.944Z,7.20
2023-04-16T18:49:28.428Z,7.20
2023-04-16T18:51:56.186Z,7.20
2023-04-16T18:54:23.794Z,7.20
2023-04-16T18:56:51.005Z,7.20
2023-04-16T18:59:18.179Z,7.20
2023-04-16T19:01:45.647Z,7.20
2023-04-16T19:04:12.933Z,7.20
2023-04-16T19:06:40.356Z,7.20
2023-04-16T19:09:09.472Z,7.20
2023-04-16T19:11:38.068Z,7.20
2023-04-16T19:14:05.974Z,7.20
2023-04-16T19:16:33.356Z,7.20
2023-04-16T19:19:01.068Z,7.20
2023-04-16T19:21:28.464Z,7.20
2023-04-16T19:23:55.600Z,7.20
2023-04-16T19:26:22.756Z,7.20
2023-04-16T19:28:49.891Z,7.20
2023-04-16T19:31:17.552Z,7.20
2023-04-16T19:33:44.790Z,7.20
2023-04-16T19:36:11.993Z,7.20
2023-04-16T19:38:39.180Z,7.20
2023-04-16T19:41:06.425Z,7.20
2023-04-16T19:43:33.669Z,7.20
2023-04-16T19:46:00.817Z,7.20
2023-04-16T19:48:28.231Z,7.20
2023-04-16T19:50:55.683Z,7.20
2023-04-16T19:53:22.921Z,7.10
2023-04-16T19:55:50.217Z,7.20
2023-04-16T19:58:17.338Z,7.20
2023-04-16T20:00:44.566Z,7.20
2023-04-16T20:03:11.881Z,7.20
2023-04-16T20:05:39.165Z,7.20
2023-04-16T20:08:06.633Z,7.20
2023-04-16T20:10:33.846Z,7.20
2023-04-16T20:13:01.233Z,7.20
2023-04-16T20:15:28.474Z,7.20
2023-04-16T20:17:56.590Z,7.20
2023-04-16T20:20:23.883Z,7.20
2023-04-16T20:22:51.155Z,7.20
2023-04-16T20:25:21.791Z,7.20
2023-04-16T20:27:48.823Z,7.20
2023-04-16T20:30:16.608Z,7.20
2023-04-16T20:32:43.984Z,7.20
2023-04-16T20:35:11.655Z,7.20
2023-04-16T20:37:39.153Z,7.20
2023-04-16T20:40:11.044Z,7.20
2023-04-16T20:42:38.279Z,7.20
2023-04-16T20:45:06.215Z,7.20
2023-04-16T20:47:36.270Z,7.20
2023-04-16T20:50:04.141Z,7.20
2023-04-16T20:52:31.299Z,7.20
2023-04-16T20:54:58.509Z,7.20
2023-04-16T20:57:26.353Z,7.20
2023-04-16T20:59:53.492Z,7.20
2023-04-16T21:02:21.326Z,7.20
2023-04-16T21:04:48.703Z,7.20
2023-04-16T21:07:16.810Z,7.20
2023-04-16T21:09:44.029Z,7.20
2023-04-16T21:12:11.163Z,7.20
2023-04-16T21:14:38.380Z,7.20
2023-04-16T21:17:05.545Z,7.20
2023-04-16T21:19:32.922Z,7.20
2023-04-16T21:22:00.203Z,7.20
2023-04-16T21:24:27.346Z,7.20
2023-04-16T21:26:54.488Z,7.20
2023-04-16T21:29:21.741Z,7.20
2023-04-16T21:31:48.955Z,7.20
2023-04-16T21:34:16.211Z,7.20
2023-04-16T21:36:43.495Z,7.20
2023-04-16T21:39:11.553Z,7.20
2023-04-16T21:41:38.958Z,7.20
2023-04-16T21:44:06.202Z,7.20
2023-04-16T21:46:33.372Z,7.20
2023-04-16T21:49:00.961Z,7.20
2023-04-16T21:51:30.970Z,7.20
2023-04-16T21:53:58.617Z,7.20
2023-04-16T21:56:26.209Z,7.20
2023-04-16T21:58:53.534Z,7.20
2023-04-16T22:01:20.757Z,7.20
2023-04-16T22:03:50.939Z,7.20
2023-04-16T22:06:18.585Z,7.20
2023-04-16T22:08:50.168Z,7.20
2023-04-16T22:11:17.527Z,7.20
2023-04-16T22:13:46.530Z,7.30
2023-04-16T22:16:13.869Z,7.20
2023-04-16T22:18:41.427Z,7.30
2023-04-16T22:21:08.762Z,7.30
2023-04-16T22:23:36.122Z,7.30
2023-04-16T22:26:04.329Z,7.20
2023-04-16T22:28:31.602Z,7.20
2023-04-16T22:30:58.742Z,7.30
2023-04-16T22:33:28.789Z,7.30
2023-04-16T22:35:56.152Z,7.30
2023-04-16T22:38:23.289Z,7.30
2023-04-16T22:40:50.730Z,7.30
2023-04-16T22:43:17.966Z,7.30
2023-04-16T22:45:46.605Z,7.30
2023-04-16T22:48:13.934Z,7.30
2023-04-16T22:50:46.084Z,7.30
2023-04-16T22:53:13.242Z,7.30
2023-04-16T22:55:40.478Z,7.30
2023-04-16T22:58:07.670Z,7.30
2023-04-16T23:00:35.439Z,7.30
2023-04-16T23:03:02.744Z,7.30
2023-04-16T23:05:30.126Z,7.30
2023-04-16T23:07:57.463Z,7.30
2023-04-16T23:10:24.656Z,7.30
2023-04-16T23:12:51.877Z,7.30
2023-04-16T23:15:19.258Z,7.30
2023-04-16T23:17:46.954Z,7.30
2023-04-16T23:20:14.470Z,7.30
2023-04-16T23:22:41.928Z,7.30
2023-04-16T23:25:09.722Z,7.30
2023-04-16T23:27:37.479Z,7.30
2023-04-16T23:30:06.008Z,7.30
2023-04-16T23:32:34.349Z,7.30
2023-04-16T23:35:01.706Z,7.30
2023-04-16T23:37:28.901Z,7.30
2023-04-16T23:39:56.143Z,7.30
2023-04-16T23:42:23.317Z,7.30
2023-04-16T23:44:50.523Z,7.30
2023-04-16T23:47:17.672Z,7.30
2023-04-16T23:49:45.001Z,7.30
2023-04-16T23:52:12.220Z,7.30
2023-04-16T23:54:39.397Z,7.30
2023-04-16T23:57:06.656Z,7.30
2023-04-16T23:59:33.777Z,7.30
